sensor_id;sensor_type;location;lat;lon;timestamp;P1;durP1;ratioP1;P2;durP2;ratioP2
21894;SDS011;11112;51.270;7.224;2022-11-20T00:02:21;15.10;;;10.77;;
21894;SDS011;11112;51.270;7.224;2022-11-20T00:04:48;17.05;;;11.18;;
21894;SDS011;11112;51.270;7.224;2022-11-20T00:07:15;15.05;;;11.27;;
21894;SDS011;11112;51.270;7.224;2022-11-20T00:09:42;16.02;;;11.15;;
21894;SDS011;11112;51.270;7.224;2022-11-20T00:12:09;15.90;;;10.70;;
21894;SDS011;11112;51.270;7.224;2022-11-20T00:14:36;14.07;;;9.93;;
21894;SDS011;11112;51.270;7.224;2022-11-20T00:17:05;15.23;;;10.65;;
21894;SDS011;11112;51.270;7.224;2022-11-20T00:19:32;15.90;;;11.45;;
21894;SDS011;11112;51.270;7.224;2022-11-20T00:21:59;14.52;;;10.85;;
21894;SDS011;11112;51.270;7.224;2022-11-20T00:24:26;15.38;;;10.80;;
21894;SDS011;11112;51.270;7.224;2022-11-20T00:26:53;16.63;;;11.23;;
21894;SDS011;11112;51.270;7.224;2022-11-20T00:29:20;14.20;;;10.07;;
21894;SDS011;11112;51.270;7.224;2022-11-20T00:31:47;16.00;;;11.07;;
21894;SDS011;11112;51.270;7.224;2022-11-20T00:34:16;15.27;;;11.00;;
21894;SDS011;11112;51.270;7.224;2022-11-20T00:36:43;16.10;;;11.02;;
21894;SDS011;11112;51.270;7.224;2022-11-20T00:39:10;16.50;;;11.18;;
21894;SDS011;11112;51.270;7.224;2022-11-20T00:41:37;17.20;;;11.88;;
21894;SDS011;11112;51.270;7.224;2022-11-20T00:44:04;18.20;;;12.02;;
21894;SDS011;11112;51.270;7.224;2022-11-20T00:46:31;17.73;;;12.02;;
21894;SDS011;11112;51.270;7.224;2022-11-20T00:48:59;17.50;;;12.10;;
21894;SDS011;11112;51.270;7.224;2022-11-20T00:51:27;18.60;;;12.20;;
21894;SDS011;11112;51.270;7.224;2022-11-20T00:53:55;16.85;;;11.82;;
21894;SDS011;11112;51.270;7.224;2022-11-20T00:56:22;19.65;;;12.77;;
21894;SDS011;11112;51.270;7.224;2022-11-20T00:58:49;18.20;;;12.35;;
21894;SDS011;11112;51.270;7.224;2022-11-20T01:01:17;17.58;;;12.35;;
21894;SDS011;11112;51.270;7.224;2022-11-20T01:03:48;19.30;;;12.45;;
21894;SDS011;11112;51.270;7.224;2022-11-20T01:06:17;19.30;;;12.98;;
21894;SDS011;11112;51.270;7.224;2022-11-20T01:08:48;18.58;;;12.35;;
21894;SDS011;11112;51.270;7.224;2022-11-20T01:11:17;18.85;;;12.73;;
21894;SDS011;11112;51.270;7.224;2022-11-20T01:13:46;18.95;;;12.48;;
21894;SDS011;11112;51.270;7.224;2022-11-20T01:16:15;17.67;;;12.10;;
21894;SDS011;11112;51.270;7.224;2022-11-20T01:18:45;18.90;;;12.40;;
21894;SDS011;11112;51.270;7.224;2022-11-20T01:21:15;18.08;;;12.27;;
21894;SDS011;11112;51.270;7.224;2022-11-20T01:23:45;18.95;;;12.77;;
21894;SDS011;11112;51.270;7.224;2022-11-20T01:26:16;19.60;;;12.88;;
21894;SDS011;11112;51.270;7.224;2022-11-20T01:28:44;19.95;;;13.02;;
21894;SDS011;11112;51.270;7.224;2022-11-20T01:31:14;21.33;;;14.48;;
21894;SDS011;11112;51.270;7.224;2022-11-20T01:33:43;19.27;;;13.13;;
21894;SDS011;11112;51.270;7.224;2022-11-20T01:36:11;21.58;;;13.32;;
21894;SDS011;11112;51.270;7.224;2022-11-20T01:38:39;18.98;;;13.07;;
21894;SDS011;11112;51.270;7.224;2022-11-20T01:41:08;19.77;;;13.45;;
21894;SDS011;11112;51.270;7.224;2022-11-20T01:43:57;19.48;;;13.27;;
21894;SDS011;11112;51.270;7.224;2022-11-20T01:46:23;19.35;;;13.38;;
21894;SDS011;11112;51.270;7.224;2022-11-20T01:48:51;19.27;;;13.02;;
21894;SDS011;11112;51.270;7.224;2022-11-20T01:51:25;20.55;;;13.43;;
21894;SDS011;11112;51.270;7.224;2022-11-20T01:53:56;19.42;;;13.02;;
21894;SDS011;11112;51.270;7.224;2022-11-20T01:56:27;19.92;;;13.50;;
21894;SDS011;11112;51.270;7.224;2022-11-20T01:58:59;19.40;;;12.70;;
21894;SDS011;11112;51.270;7.224;2022-11-20T02:01:30;20.40;;;13.48;;
21894;SDS011;11112;51.270;7.224;2022-11-20T02:03:57;18.90;;;12.88;;
21894;SDS011;11112;51.270;7.224;2022-11-20T02:06:26;18.95;;;13.30;;
21894;SDS011;11112;51.270;7.224;2022-11-20T02:08:57;18.83;;;13.15;;
21894;SDS011;11112;51.270;7.224;2022-11-20T02:11:24;19.45;;;12.23;;
21894;SDS011;11112;51.270;7.224;2022-11-20T02:13:52;18.20;;;12.60;;
21894;SDS011;11112;51.270;7.224;2022-11-20T02:16:21;18.75;;;12.70;;
21894;SDS011;11112;51.270;7.224;2022-11-20T02:18:50;19.40;;;13.23;;
21894;SDS011;11112;51.270;7.224;2022-11-20T02:21:24;21.48;;;13.23;;
21894;SDS011;11112;51.270;7.224;2022-11-20T02:24:03;19.17;;;13.35;;
21894;SDS011;11112;51.270;7.224;2022-11-20T02:26:33;19.88;;;13.00;;
21894;SDS011;11112;51.270;7.224;2022-11-20T02:29:06;18.92;;;13.15;;
21894;SDS011;11112;51.270;7.224;2022-11-20T02:31:35;19.00;;;12.93;;
21894;SDS011;11112;51.270;7.224;2022-11-20T02:34:04;20.70;;;13.68;;
21894;SDS011;11112;51.270;7.224;2022-11-20T02:36:32;20.15;;;13.57;;
21894;SDS011;11112;51.270;7.224;2022-11-20T02:39:02;18.95;;;13.18;;
21894;SDS011;11112;51.270;7.224;2022-11-20T02:41:31;19.92;;;13.55;;
21894;SDS011;11112;51.270;7.224;2022-11-20T02:43:59;19.67;;;12.70;;
21894;SDS011;11112;51.270;7.224;2022-11-20T02:46:27;17.95;;;12.65;;
21894;SDS011;11112;51.270;7.224;2022-11-20T02:48:54;20.77;;;13.30;;
21894;SDS011;11112;51.270;7.224;2022-11-20T02:51:21;18.85;;;12.60;;
21894;SDS011;11112;51.270;7.224;2022-11-20T02:53:49;20.08;;;12.65;;
21894;SDS011;11112;51.270;7.224;2022-11-20T02:56:17;18.65;;;12.65;;
21894;SDS011;11112;51.270;7.224;2022-11-20T02:58:45;17.23;;;12.25;;
21894;SDS011;11112;51.270;7.224;2022-11-20T03:04:04;20.90;;;13.77;;
21894;SDS011;11112;51.270;7.224;2022-11-20T03:06:31;20.52;;;14.13;;
21894;SDS011;11112;51.270;7.224;2022-11-20T03:08:58;20.50;;;13.65;;
21894;SDS011;11112;51.270;7.224;2022-11-20T03:11:27;21.92;;;14.57;;
21894;SDS011;11112;51.270;7.224;2022-11-20T03:13:55;22.20;;;14.02;;
21894;SDS011;11112;51.270;7.224;2022-11-20T03:16:22;21.70;;;14.32;;
21894;SDS011;11112;51.270;7.224;2022-11-20T03:18:51;21.30;;;13.98;;
21894;SDS011;11112;51.270;7.224;2022-11-20T03:21:18;21.42;;;14.52;;
21894;SDS011;11112;51.270;7.224;2022-11-20T03:23:45;21.77;;;14.07;;
21894;SDS011;11112;51.270;7.224;2022-11-20T03:26:13;21.10;;;13.50;;
21894;SDS011;11112;51.270;7.224;2022-11-20T03:28:48;20.88;;;13.52;;
21894;SDS011;11112;51.270;7.224;2022-11-20T03:31:18;19.38;;;13.35;;
21894;SDS011;11112;51.270;7.224;2022-11-20T03:33:47;20.77;;;14.18;;
21894;SDS011;11112;51.270;7.224;2022-11-20T03:36:15;20.08;;;13.82;;
21894;SDS011;11112;51.270;7.224;2022-11-20T03:38:43;21.15;;;14.55;;
21894;SDS011;11112;51.270;7.224;2022-11-20T03:41:13;22.73;;;15.23;;
21894;SDS011;11112;51.270;7.224;2022-11-20T03:43:47;22.80;;;15.55;;
21894;SDS011;11112;51.270;7.224;2022-11-20T03:46:15;23.20;;;15.48;;
21894;SDS011;11112;51.270;7.224;2022-11-20T03:48:42;22.13;;;15.20;;
21894;SDS011;11112;51.270;7.224;2022-11-20T03:51:10;23.67;;;16.35;;
21894;SDS011;11112;51.270;7.224;2022-11-20T03:53:40;24.10;;;16.80;;
21894;SDS011;11112;51.270;7.224;2022-11-20T03:56:09;24.13;;;16.25;;
21894;SDS011;11112;51.270;7.224;2022-11-20T03:58:38;24.05;;;15.73;;
21894;SDS011;11112;51.270;7.224;2022-11-20T04:01:08;23.95;;;16.30;;
21894;SDS011;11112;51.270;7.224;2022-11-20T04:03:37;25.35;;;16.92;;
21894;SDS011;11112;51.270;7.224;2022-11-20T04:06:07;27.13;;;17.35;;
21894;SDS011;11112;51.270;7.224;2022-11-20T04:08:37;26.95;;;17.65;;
21894;SDS011;11112;51.270;7.224;2022-11-20T04:11:11;25.60;;;16.75;;
21894;SDS011;11112;51.270;7.224;2022-11-20T04:13:40;26.00;;;16.77;;
21894;SDS011;11112;51.270;7.224;2022-11-20T04:16:10;25.35;;;16.63;;
21894;SDS011;11112;51.270;7.224;2022-11-20T04:18:37;27.02;;;16.65;;
21894;SDS011;11112;51.270;7.224;2022-11-20T04:21:05;25.27;;;15.90;;
21894;SDS011;11112;51.270;7.224;2022-11-20T04:23:32;26.05;;;16.92;;
21894;SDS011;11112;51.270;7.224;2022-11-20T04:26:02;25.60;;;16.65;;
21894;SDS011;11112;51.270;7.224;2022-11-20T04:28:30;24.55;;;16.88;;
21894;SDS011;11112;51.270;7.224;2022-11-20T04:31:04;25.17;;;17.35;;
21894;SDS011;11112;51.270;7.224;2022-11-20T04:33:34;27.70;;;18.50;;
21894;SDS011;11112;51.270;7.224;2022-11-20T04:36:03;27.77;;;18.23;;
21894;SDS011;11112;51.270;7.224;2022-11-20T04:38:32;26.58;;;17.58;;
21894;SDS011;11112;51.270;7.224;2022-11-20T04:41:00;28.08;;;17.95;;
21894;SDS011;11112;51.270;7.224;2022-11-20T04:43:30;25.83;;;16.88;;
21894;SDS011;11112;51.270;7.224;2022-11-20T04:45:58;25.77;;;17.00;;
21894;SDS011;11112;51.270;7.224;2022-11-20T04:48:28;27.17;;;18.35;;
21894;SDS011;11112;51.270;7.224;2022-11-20T04:50:57;26.63;;;17.25;;
21894;SDS011;11112;51.270;7.224;2022-11-20T04:53:28;29.98;;;19.27;;
21894;SDS011;11112;51.270;7.224;2022-11-20T04:55:58;28.10;;;18.75;;
21894;SDS011;11112;51.270;7.224;2022-11-20T04:58:26;25.67;;;17.13;;
21894;SDS011;11112;51.270;7.224;2022-11-20T05:00:53;27.55;;;17.63;;
21894;SDS011;11112;51.270;7.224;2022-11-20T05:03:27;26.63;;;17.67;;
21894;SDS011;11112;51.270;7.224;2022-11-20T05:05:54;22.70;;;15.35;;
21894;SDS011;11112;51.270;7.224;2022-11-20T05:08:22;25.42;;;16.65;;
21894;SDS011;11112;51.270;7.224;2022-11-20T05:10:49;23.90;;;15.45;;
21894;SDS011;11112;51.270;7.224;2022-11-20T05:13:16;22.02;;;14.93;;
21894;SDS011;11112;51.270;7.224;2022-11-20T05:15:43;23.73;;;15.77;;
21894;SDS011;11112;51.270;7.224;2022-11-20T05:18:10;21.25;;;14.20;;
21894;SDS011;11112;51.270;7.224;2022-11-20T05:20:37;22.77;;;15.70;;
21894;SDS011;11112;51.270;7.224;2022-11-20T05:23:04;24.67;;;15.90;;
21894;SDS011;11112;51.270;7.224;2022-11-20T05:25:32;23.23;;;15.45;;
21894;SDS011;11112;51.270;7.224;2022-11-20T05:27:59;24.17;;;15.52;;
21894;SDS011;11112;51.270;7.224;2022-11-20T05:30:26;23.13;;;15.38;;
21894;SDS011;11112;51.270;7.224;2022-11-20T05:32:53;23.13;;;14.85;;
21894;SDS011;11112;51.270;7.224;2022-11-20T05:35:20;24.00;;;15.32;;
21894;SDS011;11112;51.270;7.224;2022-11-20T05:37:47;21.77;;;14.85;;
21894;SDS011;11112;51.270;7.224;2022-11-20T05:40:14;22.90;;;14.32;;
21894;SDS011;11112;51.270;7.224;2022-11-20T05:42:43;24.42;;;16.17;;
21894;SDS011;11112;51.270;7.224;2022-11-20T05:45:10;24.38;;;15.50;;
21894;SDS011;11112;51.270;7.224;2022-11-20T05:47:37;20.83;;;14.10;;
21894;SDS011;11112;51.270;7.224;2022-11-20T05:50:04;21.50;;;14.32;;
21894;SDS011;11112;51.270;7.224;2022-11-20T05:52:32;21.25;;;14.88;;
21894;SDS011;11112;51.270;7.224;2022-11-20T05:54:59;26.38;;;16.02;;
21894;SDS011;11112;51.270;7.224;2022-11-20T05:57:26;23.88;;;15.85;;
21894;SDS011;11112;51.270;7.224;2022-11-20T05:59:55;22.95;;;15.85;;
21894;SDS011;11112;51.270;7.224;2022-11-20T06:02:22;24.60;;;15.95;;
21894;SDS011;11112;51.270;7.224;2022-11-20T06:04:49;24.25;;;16.25;;
21894;SDS011;11112;51.270;7.224;2022-11-20T06:07:16;24.98;;;16.73;;
21894;SDS011;11112;51.270;7.224;2022-11-20T06:09:43;26.20;;;16.58;;
21894;SDS011;11112;51.270;7.224;2022-11-20T06:12:10;23.42;;;16.23;;
21894;SDS011;11112;51.270;7.224;2022-11-20T06:14:37;25.05;;;16.60;;
21894;SDS011;11112;51.270;7.224;2022-11-20T06:17:05;24.42;;;16.70;;
21894;SDS011;11112;51.270;7.224;2022-11-20T06:19:32;25.20;;;16.88;;
21894;SDS011;11112;51.270;7.224;2022-11-20T06:21:59;27.65;;;17.83;;
21894;SDS011;11112;51.270;7.224;2022-11-20T06:24:26;25.27;;;17.13;;
21894;SDS011;11112;51.270;7.224;2022-11-20T06:26:53;26.40;;;17.08;;
21894;SDS011;11112;51.270;7.224;2022-11-20T06:29:20;25.67;;;17.30;;
21894;SDS011;11112;51.270;7.224;2022-11-20T06:31:47;25.55;;;17.20;;
21894;SDS011;11112;51.270;7.224;2022-11-20T06:34:16;24.25;;;16.50;;
21894;SDS011;11112;51.270;7.224;2022-11-20T06:36:43;25.30;;;16.90;;
21894;SDS011;11112;51.270;7.224;2022-11-20T06:39:10;27.00;;;16.95;;
21894;SDS011;11112;51.270;7.224;2022-11-20T06:41:37;26.15;;;16.58;;
21894;SDS011;11112;51.270;7.224;2022-11-20T06:44:04;25.50;;;16.55;;
21894;SDS011;11112;51.270;7.224;2022-11-20T06:46:31;28.17;;;18.13;;
21894;SDS011;11112;51.270;7.224;2022-11-20T06:48:58;25.90;;;17.48;;
21894;SDS011;11112;51.270;7.224;2022-11-20T06:51:27;25.27;;;17.17;;
21894;SDS011;11112;51.270;7.224;2022-11-20T06:53:54;25.38;;;16.73;;
21894;SDS011;11112;51.270;7.224;2022-11-20T06:56:21;24.80;;;16.83;;
21894;SDS011;11112;51.270;7.224;2022-11-20T06:58:48;26.60;;;16.90;;
21894;SDS011;11112;51.270;7.224;2022-11-20T07:01:15;28.67;;;18.38;;
21894;SDS011;11112;51.270;7.224;2022-11-20T07:03:42;28.15;;;18.67;;
21894;SDS011;11112;51.270;7.224;2022-11-20T07:06:09;27.92;;;17.77;;
21894;SDS011;11112;51.270;7.224;2022-11-20T07:08:38;25.85;;;16.52;;
21894;SDS011;11112;51.270;7.224;2022-11-20T07:11:06;25.95;;;17.27;;
21894;SDS011;11112;51.270;7.224;2022-11-20T07:13:33;29.35;;;19.17;;
21894;SDS011;11112;51.270;7.224;2022-11-20T07:16:01;24.42;;;15.30;;
21894;SDS011;11112;51.270;7.224;2022-11-20T07:18:31;20.00;;;13.48;;
21894;SDS011;11112;51.270;7.224;2022-11-20T07:20:59;19.25;;;13.57;;
21894;SDS011;11112;51.270;7.224;2022-11-20T07:23:27;18.80;;;13.25;;
21894;SDS011;11112;51.270;7.224;2022-11-20T07:25:55;20.67;;;13.60;;
21894;SDS011;11112;51.270;7.224;2022-11-20T07:28:22;18.92;;;13.32;;
21894;SDS011;11112;51.270;7.224;2022-11-20T07:30:50;18.27;;;13.23;;
21894;SDS011;11112;51.270;7.224;2022-11-20T07:33:17;20.15;;;13.93;;
21894;SDS011;11112;51.270;7.224;2022-11-20T07:35:44;19.65;;;13.98;;
21894;SDS011;11112;51.270;7.224;2022-11-20T07:38:11;21.00;;;14.02;;
21894;SDS011;11112;51.270;7.224;2022-11-20T07:40:38;20.02;;;13.70;;
21894;SDS011;11112;51.270;7.224;2022-11-20T07:43:07;20.70;;;14.88;;
21894;SDS011;11112;51.270;7.224;2022-11-20T07:45:34;20.40;;;14.10;;
21894;SDS011;11112;51.270;7.224;2022-11-20T07:48:01;20.00;;;13.52;;
21894;SDS011;11112;51.270;7.224;2022-11-20T07:50:29;16.92;;;12.13;;
21894;SDS011;11112;51.270;7.224;2022-11-20T07:53:00;16.05;;;11.50;;
21894;SDS011;11112;51.270;7.224;2022-11-20T07:55:29;17.50;;;11.88;;
21894;SDS011;11112;51.270;7.224;2022-11-20T07:57:57;20.38;;;13.15;;
21894;SDS011;11112;51.270;7.224;2022-11-20T08:00:26;16.08;;;11.45;;
21894;SDS011;11112;51.270;7.224;2022-11-20T08:02:53;16.42;;;10.95;;
21894;SDS011;11112;51.270;7.224;2022-11-20T08:05:21;15.35;;;10.50;;
21894;SDS011;11112;51.270;7.224;2022-11-20T08:07:48;16.27;;;11.13;;
21894;SDS011;11112;51.270;7.224;2022-11-20T08:10:15;15.70;;;11.10;;
21894;SDS011;11112;51.270;7.224;2022-11-20T08:12:43;16.85;;;11.45;;
21894;SDS011;11112;51.270;7.224;2022-11-20T08:15:30;15.77;;;11.13;;
21894;SDS011;11112;51.270;7.224;2022-11-20T08:18:01;16.88;;;11.43;;
21894;SDS011;11112;51.270;7.224;2022-11-20T08:20:30;17.48;;;11.75;;
21894;SDS011;11112;51.270;7.224;2022-11-20T08:22:57;16.25;;;11.75;;
21894;SDS011;11112;51.270;7.224;2022-11-20T08:25:26;16.02;;;11.70;;
21894;SDS011;11112;51.270;7.224;2022-11-20T08:27:54;16.80;;;11.95;;
21894;SDS011;11112;51.270;7.224;2022-11-20T08:30:23;16.52;;;11.23;;
21894;SDS011;11112;51.270;7.224;2022-11-20T08:32:52;15.13;;;10.38;;
21894;SDS011;11112;51.270;7.224;2022-11-20T08:35:20;14.73;;;9.85;;
21894;SDS011;11112;51.270;7.224;2022-11-20T08:37:48;14.10;;;9.85;;
21894;SDS011;11112;51.270;7.224;2022-11-20T08:40:15;13.65;;;9.73;;
21894;SDS011;11112;51.270;7.224;2022-11-20T08:42:46;14.20;;;10.32;;
21894;SDS011;11112;51.270;7.224;2022-11-20T08:45:14;13.65;;;9.90;;
21894;SDS011;11112;51.270;7.224;2022-11-20T08:47:42;14.48;;;10.13;;
21894;SDS011;11112;51.270;7.224;2022-11-20T08:50:11;14.30;;;9.65;;
21894;SDS011;11112;51.270;7.224;2022-11-20T08:52:40;14.52;;;9.20;;
21894;SDS011;11112;51.270;7.224;2022-11-20T08:55:08;12.90;;;9.05;;
21894;SDS011;11112;51.270;7.224;2022-11-20T08:57:36;12.02;;;8.27;;
21894;SDS011;11112;51.270;7.224;2022-11-20T09:00:05;10.32;;;7.53;;
21894;SDS011;11112;51.270;7.224;2022-11-20T09:02:34;12.55;;;8.20;;
21894;SDS011;11112;51.270;7.224;2022-11-20T09:05:01;11.88;;;8.23;;
21894;SDS011;11112;51.270;7.224;2022-11-20T09:07:30;12.20;;;8.50;;
21894;SDS011;11112;51.270;7.224;2022-11-20T09:09:57;12.88;;;8.82;;
21894;SDS011;11112;51.270;7.224;2022-11-20T09:12:24;11.73;;;8.20;;
21894;SDS011;11112;51.270;7.224;2022-11-20T09:14:51;11.90;;;8.45;;
21894;SDS011;11112;51.270;7.224;2022-11-20T09:17:18;11.98;;;8.43;;
21894;SDS011;11112;51.270;7.224;2022-11-20T09:19:46;11.80;;;8.27;;
21894;SDS011;11112;51.270;7.224;2022-11-20T09:22:13;12.02;;;8.52;;
21894;SDS011;11112;51.270;7.224;2022-11-20T09:24:42;13.48;;;9.00;;
21894;SDS011;11112;51.270;7.224;2022-11-20T09:27:09;13.82;;;8.93;;
21894;SDS011;11112;51.270;7.224;2022-11-20T09:29:36;13.50;;;8.55;;
21894;SDS011;11112;51.270;7.224;2022-11-20T09:32:03;12.88;;;9.02;;
21894;SDS011;11112;51.270;7.224;2022-11-20T09:34:31;17.65;;;9.75;;
21894;SDS011;11112;51.270;7.224;2022-11-20T09:36:58;15.30;;;9.38;;
21894;SDS011;11112;51.270;7.224;2022-11-20T09:39:25;13.80;;;9.65;;
21894;SDS011;11112;51.270;7.224;2022-11-20T09:41:59;13.95;;;9.50;;
21894;SDS011;11112;51.270;7.224;2022-11-20T09:44:46;11.77;;;8.25;;
21894;SDS011;11112;51.270;7.224;2022-11-20T09:47:26;13.43;;;8.38;;
21894;SDS011;11112;51.270;7.224;2022-11-20T09:50:10;12.43;;;8.23;;
21894;SDS011;11112;51.270;7.224;2022-11-20T09:52:53;13.75;;;8.40;;
21894;SDS011;11112;51.270;7.224;2022-11-20T09:55:35;12.38;;;8.48;;
21894;SDS011;11112;51.270;7.224;2022-11-20T09:58:06;12.10;;;8.32;;
21894;SDS011;11112;51.270;7.224;2022-11-20T10:00:40;11.80;;;8.23;;
21894;SDS011;11112;51.270;7.224;2022-11-20T10:03:11;21.15;;;14.15;;
21894;SDS011;11112;51.270;7.224;2022-11-20T10:05:45;14.18;;;9.77;;
21894;SDS011;11112;51.270;7.224;2022-11-20T10:08:15;12.63;;;8.15;;
21894;SDS011;11112;51.270;7.224;2022-11-20T10:10:47;12.70;;;8.70;;
21894;SDS011;11112;51.270;7.224;2022-11-20T10:13:24;15.90;;;10.55;;
21894;SDS011;11112;51.270;7.224;2022-11-20T10:16:09;13.00;;;8.07;;
21894;SDS011;11112;51.270;7.224;2022-11-20T10:18:58;14.55;;;9.52;;
21894;SDS011;11112;51.270;7.224;2022-11-20T10:21:38;14.27;;;9.77;;
21894;SDS011;11112;51.270;7.224;2022-11-20T10:30:24;13.80;;;9.27;;
21894;SDS011;11112;51.270;7.224;2022-11-20T10:32:52;14.00;;;9.57;;
21894;SDS011;11112;51.270;7.224;2022-11-20T10:35:28;20.55;;;11.52;;
21894;SDS011;11112;51.270;7.224;2022-11-20T10:38:02;16.13;;;10.10;;
21894;SDS011;11112;51.270;7.224;2022-11-20T10:40:37;16.95;;;11.00;;
21894;SDS011;11112;51.270;7.224;2022-11-20T10:43:08;16.75;;;10.10;;
21894;SDS011;11112;51.270;7.224;2022-11-20T10:48:19;15.18;;;10.57;;
21894;SDS011;11112;51.270;7.224;2022-11-20T10:51:00;21.02;;;13.35;;
21894;SDS011;11112;51.270;7.224;2022-11-20T10:53:40;18.92;;;11.80;;
21894;SDS011;11112;51.270;7.224;2022-11-20T10:56:19;16.70;;;11.13;;
21894;SDS011;11112;51.270;7.224;2022-11-20T10:59:00;17.17;;;11.65;;
21894;SDS011;11112;51.270;7.224;2022-11-20T11:01:46;22.93;;;14.60;;
21894;SDS011;11112;51.270;7.224;2022-11-20T11:04:30;24.52;;;16.65;;
21894;SDS011;11112;51.270;7.224;2022-11-20T11:07:06;19.30;;;12.57;;
21894;SDS011;11112;51.270;7.224;2022-11-20T11:09:38;21.42;;;14.50;;
21894;SDS011;11112;51.270;7.224;2022-11-20T11:12:09;25.25;;;15.43;;
21894;SDS011;11112;51.270;7.224;2022-11-20T11:14:44;23.17;;;16.92;;
21894;SDS011;11112;51.270;7.224;2022-11-20T11:17:20;21.83;;;14.00;;
21894;SDS011;11112;51.270;7.224;2022-11-20T11:20:02;20.35;;;13.93;;
21894;SDS011;11112;51.270;7.224;2022-11-20T11:22:34;22.85;;;15.13;;
21894;SDS011;11112;51.270;7.224;2022-11-20T11:25:12;24.10;;;15.40;;
21894;SDS011;11112;51.270;7.224;2022-11-20T11:27:54;24.23;;;15.85;;
21894;SDS011;11112;51.270;7.224;2022-11-20T11:30:24;23.08;;;15.35;;
21894;SDS011;11112;51.270;7.224;2022-11-20T11:33:03;23.38;;;15.10;;
21894;SDS011;11112;51.270;7.224;2022-11-20T11:35:32;25.02;;;16.63;;
21894;SDS011;11112;51.270;7.224;2022-11-20T11:38:03;23.65;;;15.68;;
21894;SDS011;11112;51.270;7.224;2022-11-20T11:40:33;24.45;;;16.63;;
21894;SDS011;11112;51.270;7.224;2022-11-20T11:43:04;25.23;;;16.67;;
21894;SDS011;11112;51.270;7.224;2022-11-20T11:45:53;23.33;;;16.40;;
21894;SDS011;11112;51.270;7.224;2022-11-20T11:48:21;22.10;;;15.65;;
21894;SDS011;11112;51.270;7.224;2022-11-20T11:50:48;27.50;;;16.58;;
21894;SDS011;11112;51.270;7.224;2022-11-20T11:53:17;24.73;;;16.00;;
21894;SDS011;11112;51.270;7.224;2022-11-20T11:55:47;21.52;;;14.68;;
21894;SDS011;11112;51.270;7.224;2022-11-20T11:58:25;21.58;;;15.25;;
21894;SDS011;11112;51.270;7.224;2022-11-20T12:01:11;23.38;;;15.27;;
21894;SDS011;11112;51.270;7.224;2022-11-20T12:03:55;21.77;;;15.00;;
21894;SDS011;11112;51.270;7.224;2022-11-20T12:06:28;23.40;;;15.32;;
21894;SDS011;11112;51.270;7.224;2022-11-20T12:08:58;22.98;;;14.95;;
21894;SDS011;11112;51.270;7.224;2022-11-20T12:11:30;24.17;;;16.33;;
21894;SDS011;11112;51.270;7.224;2022-11-20T12:16:37;22.88;;;14.95;;
21894;SDS011;11112;51.270;7.224;2022-11-20T12:19:09;25.35;;;17.25;;
21894;SDS011;11112;51.270;7.224;2022-11-20T12:21:43;35.40;;;21.70;;
21894;SDS011;11112;51.270;7.224;2022-11-20T12:24:25;26.45;;;16.27;;
21894;SDS011;11112;51.270;7.224;2022-11-20T12:27:18;26.67;;;16.70;;
21894;SDS011;11112;51.270;7.224;2022-11-20T12:30:08;27.80;;;18.20;;
21894;SDS011;11112;51.270;7.224;2022-11-20T12:32:44;31.00;;;20.02;;
21894;SDS011;11112;51.270;7.224;2022-11-20T12:48:41;26.13;;;16.45;;
21894;SDS011;11112;51.270;7.224;2022-11-20T12:51:27;25.38;;;16.00;;
21894;SDS011;11112;51.270;7.224;2022-11-20T12:54:24;25.45;;;16.65;;
21894;SDS011;11112;51.270;7.224;2022-11-20T12:57:09;29.83;;;16.58;;
21894;SDS011;11112;51.270;7.224;2022-11-20T12:59:52;24.65;;;17.27;;
21894;SDS011;11112;51.270;7.224;2022-11-20T13:02:47;25.77;;;16.92;;
21894;SDS011;11112;51.270;7.224;2022-11-20T13:06:10;25.08;;;16.25;;
21894;SDS011;11112;51.270;7.224;2022-11-20T13:08:45;22.83;;;16.25;;
21894;SDS011;11112;51.270;7.224;2022-11-20T13:11:19;26.27;;;16.33;;
21894;SDS011;11112;51.270;7.224;2022-11-20T13:14:04;23.27;;;16.20;;
21894;SDS011;11112;51.270;7.224;2022-11-20T13:16:46;26.38;;;16.58;;
21894;SDS011;11112;51.270;7.224;2022-11-20T13:19:18;23.30;;;15.57;;
21894;SDS011;11112;51.270;7.224;2022-11-20T13:21:46;26.05;;;16.63;;
21894;SDS011;11112;51.270;7.224;2022-11-20T13:24:26;23.85;;;15.75;;
21894;SDS011;11112;51.270;7.224;2022-11-20T13:27:16;24.25;;;15.55;;
21894;SDS011;11112;51.270;7.224;2022-11-20T13:29:46;25.77;;;16.08;;
21894;SDS011;11112;51.270;7.224;2022-11-20T13:32:26;23.38;;;15.60;;
21894;SDS011;11112;51.270;7.224;2022-11-20T13:34:58;23.30;;;15.98;;
21894;SDS011;11112;51.270;7.224;2022-11-20T13:37:28;25.10;;;16.63;;
21894;SDS011;11112;51.270;7.224;2022-11-20T13:40:19;27.65;;;17.13;;
21894;SDS011;11112;51.270;7.224;2022-11-20T13:42:55;27.90;;;17.75;;
21894;SDS011;11112;51.270;7.224;2022-11-20T13:45:29;27.55;;;18.05;;
21894;SDS011;11112;51.270;7.224;2022-11-20T13:47:58;27.75;;;17.80;;
21894;SDS011;11112;51.270;7.224;2022-11-20T13:50:38;27.92;;;17.30;;
21894;SDS011;11112;51.270;7.224;2022-11-20T13:53:18;26.75;;;17.58;;
21894;SDS011;11112;51.270;7.224;2022-11-20T13:56:03;26.80;;;17.27;;
21894;SDS011;11112;51.270;7.224;2022-11-20T13:58:40;27.67;;;18.00;;
21894;SDS011;11112;51.270;7.224;2022-11-20T14:01:16;29.27;;;17.88;;
21894;SDS011;11112;51.270;7.224;2022-11-20T14:03:46;29.65;;;18.92;;
21894;SDS011;11112;51.270;7.224;2022-11-20T14:06:15;29.27;;;18.83;;
21894;SDS011;11112;51.270;7.224;2022-11-20T14:08:53;32.72;;;20.15;;
21894;SDS011;11112;51.270;7.224;2022-11-20T14:11:23;29.80;;;19.17;;
21894;SDS011;11112;51.270;7.224;2022-11-20T14:13:57;31.73;;;20.50;;
21894;SDS011;11112;51.270;7.224;2022-11-20T14:16:27;32.72;;;19.75;;
21894;SDS011;11112;51.270;7.224;2022-11-20T14:18:56;32.30;;;20.80;;
21894;SDS011;11112;51.270;7.224;2022-11-20T14:21:49;32.95;;;20.27;;
21894;SDS011;11112;51.270;7.224;2022-11-20T14:24:20;32.03;;;19.70;;
21894;SDS011;11112;51.270;7.224;2022-11-20T14:26:51;30.25;;;19.17;;
21894;SDS011;11112;51.270;7.224;2022-11-20T14:29:19;33.40;;;19.83;;
21894;SDS011;11112;51.270;7.224;2022-11-20T14:34:19;31.33;;;19.50;;
21894;SDS011;11112;51.270;7.224;2022-11-20T14:36:49;33.72;;;20.48;;
21894;SDS011;11112;51.270;7.224;2022-11-20T14:39:22;33.13;;;20.07;;
21894;SDS011;11112;51.270;7.224;2022-11-20T14:41:56;34.72;;;21.63;;
21894;SDS011;11112;51.270;7.224;2022-11-20T14:44:25;38.63;;;24.10;;
21894;SDS011;11112;51.270;7.224;2022-11-20T14:46:57;38.45;;;22.83;;
21894;SDS011;11112;51.270;7.224;2022-11-20T14:49:26;37.83;;;21.88;;
21894;SDS011;11112;51.270;7.224;2022-11-20T14:52:00;38.08;;;22.75;;
21894;SDS011;11112;51.270;7.224;2022-11-20T14:54:29;40.28;;;22.08;;
21894;SDS011;11112;51.270;7.224;2022-11-20T14:56:58;38.05;;;22.08;;
21894;SDS011;11112;51.270;7.224;2022-11-20T14:59:29;40.47;;;22.83;;
21894;SDS011;11112;51.270;7.224;2022-11-20T15:01:59;38.33;;;22.20;;
21894;SDS011;11112;51.270;7.224;2022-11-20T15:04:29;37.72;;;22.17;;
21894;SDS011;11112;51.270;7.224;2022-11-20T15:06:57;40.30;;;22.30;;
21894;SDS011;11112;51.270;7.224;2022-11-20T15:09:25;40.40;;;21.95;;
21894;SDS011;11112;51.270;7.224;2022-11-20T15:11:53;38.00;;;22.17;;
21894;SDS011;11112;51.270;7.224;2022-11-20T15:14:25;39.67;;;23.35;;
21894;SDS011;11112;51.270;7.224;2022-11-20T15:16:54;38.28;;;21.63;;